sensor_id;sensor_type;location;lat;lon;timestamp;P1;durP1;ratioP1;P2;durP2;ratioP2
25913;SDS011;13718;50.922;5.346;2023-08-06T00:01:50;7.78;;;2.63;;
25913;SDS011;13718;50.922;5.346;2023-08-06T00:04:15;6.22;;;2.50;;
25913;SDS011;13718;50.922;5.346;2023-08-06T00:06:41;7.18;;;2.58;;
25913;SDS011;13718;50.922;5.346;2023-08-06T00:09:07;14.52;;;2.47;;
25913;SDS011;13718;50.922;5.346;2023-08-06T00:11:33;10.63;;;2.47;;
25913;SDS011;13718;50.922;5.346;2023-08-06T00:13:58;6.03;;;2.55;;
25913;SDS011;13718;50.922;5.346;2023-08-06T00:16:24;9.80;;;2.72;;
25913;SDS011;13718;50.922;5.346;2023-08-06T00:18:50;9.98;;;2.35;;
25913;SDS011;13718;50.922;5.346;2023-08-06T00:21:15;9.82;;;2.38;;
25913;SDS011;13718;50.922;5.346;2023-08-06T00:23:41;14.32;;;2.58;;
25913;SDS011;13718;50.922;5.346;2023-08-06T00:26:06;8.30;;;2.22;;
25913;SDS011;13718;50.922;5.346;2023-08-06T00:28:32;9.50;;;2.17;;
25913;SDS011;13718;50.922;5.346;2023-08-06T00:30:58;8.30;;;2.30;;
25913;SDS011;13718;50.922;5.346;2023-08-06T00:33:23;9.57;;;2.10;;
25913;SDS011;13718;50.922;5.346;2023-08-06T00:35:49;10.68;;;2.13;;
25913;SDS011;13718;50.922;5.346;2023-08-06T00:38:15;10.18;;;2.03;;
25913;SDS011;13718;50.922;5.346;2023-08-06T00:40:41;10.60;;;2.28;;
25913;SDS011;13718;50.922;5.346;2023-08-06T00:43:07;8.18;;;2.28;;
25913;SDS011;13718;50.922;5.346;2023-08-06T00:45:33;7.70;;;1.85;;
25913;SDS011;13718;50.922;5.346;2023-08-06T00:48:00;7.15;;;2.00;;
25913;SDS011;13718;50.922;5.346;2023-08-06T00:50:26;8.73;;;2.17;;
25913;SDS011;13718;50.922;5.346;2023-08-06T00:52:52;13.02;;;2.53;;
25913;SDS011;13718;50.922;5.346;2023-08-06T00:55:19;10.35;;;2.13;;
25913;SDS011;13718;50.922;5.346;2023-08-06T00:57:44;7.50;;;1.92;;
25913;SDS011;13718;50.922;5.346;2023-08-06T01:00:10;10.98;;;2.17;;
25913;SDS011;13718;50.922;5.346;2023-08-06T01:02:36;8.93;;;1.92;;
25913;SDS011;13718;50.922;5.346;2023-08-06T01:05:02;9.57;;;1.90;;
25913;SDS011;13718;50.922;5.346;2023-08-06T01:07:33;11.25;;;2.17;;
25913;SDS011;13718;50.922;5.346;2023-08-06T01:10:30;7.00;;;1.75;;
25913;SDS011;13718;50.922;5.346;2023-08-06T01:13:22;8.18;;;2.15;;
25913;SDS011;13718;50.922;5.346;2023-08-06T01:15:55;15.88;;;2.15;;
25913;SDS011;13718;50.922;5.346;2023-08-06T01:18:23;9.27;;;2.05;;
25913;SDS011;13718;50.922;5.346;2023-08-06T01:20:48;7.90;;;2.03;;
25913;SDS011;13718;50.922;5.346;2023-08-06T01:23:15;5.90;;;1.85;;
25913;SDS011;13718;50.922;5.346;2023-08-06T01:26:24;12.85;;;2.20;;
25913;SDS011;13718;50.922;5.346;2023-08-06T01:29:10;7.35;;;2.20;;
25913;SDS011;13718;50.922;5.346;2023-08-06T01:31:48;13.85;;;1.92;;
25913;SDS011;13718;50.922;5.346;2023-08-06T01:34:24;11.80;;;1.95;;
25913;SDS011;13718;50.922;5.346;2023-08-06T01:36:52;8.63;;;2.50;;
25913;SDS011;13718;50.922;5.346;2023-08-06T01:39:18;9.63;;;1.92;;
25913;SDS011;13718;50.922;5.346;2023-08-06T01:41:47;5.68;;;1.67;;
25913;SDS011;13718;50.922;5.346;2023-08-06T01:44:13;10.07;;;2.42;;
25913;SDS011;13718;50.922;5.346;2023-08-06T01:46:39;8.60;;;1.88;;
25913;SDS011;13718;50.922;5.346;2023-08-06T01:49:05;13.88;;;2.05;;
25913;SDS011;13718;50.922;5.346;2023-08-06T01:51:30;8.20;;;2.00;;
25913;SDS011;13718;50.922;5.346;2023-08-06T01:53:56;8.77;;;2.10;;
25913;SDS011;13718;50.922;5.346;2023-08-06T01:56:21;8.18;;;2.10;;
25913;SDS011;13718;50.922;5.346;2023-08-06T01:58:47;10.05;;;2.00;;
25913;SDS011;13718;50.922;5.346;2023-08-06T02:01:12;7.55;;;1.88;;
25913;SDS011;13718;50.922;5.346;2023-08-06T02:03:38;8.98;;;1.40;;
25913;SDS011;13718;50.922;5.346;2023-08-06T02:06:04;10.85;;;2.30;;
25913;SDS011;13718;50.922;5.346;2023-08-06T02:08:29;5.55;;;1.70;;
25913;SDS011;13718;50.922;5.346;2023-08-06T02:10:55;7.93;;;1.92;;
25913;SDS011;13718;50.922;5.346;2023-08-06T02:13:20;4.82;;;1.42;;
25913;SDS011;13718;50.922;5.346;2023-08-06T02:15:46;9.15;;;2.10;;
25913;SDS011;13718;50.922;5.346;2023-08-06T02:18:15;7.90;;;2.03;;
25913;SDS011;13718;50.922;5.346;2023-08-06T02:20:41;7.53;;;1.90;;
25913;SDS011;13718;50.922;5.346;2023-08-06T02:23:06;4.07;;;1.70;;
25913;SDS011;13718;50.922;5.346;2023-08-06T02:25:32;9.50;;;2.25;;
25913;SDS011;13718;50.922;5.346;2023-08-06T02:27:58;5.55;;;1.85;;
25913;SDS011;13718;50.922;5.346;2023-08-06T02:30:23;8.30;;;1.90;;
25913;SDS011;13718;50.922;5.346;2023-08-06T02:32:49;6.82;;;2.40;;
25913;SDS011;13718;50.922;5.346;2023-08-06T02:35:14;7.35;;;1.80;;
25913;SDS011;13718;50.922;5.346;2023-08-06T02:37:40;11.43;;;2.35;;
25913;SDS011;13718;50.922;5.346;2023-08-06T02:40:05;4.72;;;1.70;;
25913;SDS011;13718;50.922;5.346;2023-08-06T02:42:31;8.68;;;2.08;;
25913;SDS011;13718;50.922;5.346;2023-08-06T02:44:57;5.70;;;1.75;;
25913;SDS011;13718;50.922;5.346;2023-08-06T02:47:23;5.70;;;1.67;;
25913;SDS011;13718;50.922;5.346;2023-08-06T02:49:48;4.32;;;2.00;;
25913;SDS011;13718;50.922;5.346;2023-08-06T02:52:14;6.85;;;2.15;;
25913;SDS011;13718;50.922;5.346;2023-08-06T02:54:39;6.50;;;2.08;;
25913;SDS011;13718;50.922;5.346;2023-08-06T02:57:05;7.78;;;2.40;;
25913;SDS011;13718;50.922;5.346;2023-08-06T02:59:32;9.40;;;2.20;;
25913;SDS011;13718;50.922;5.346;2023-08-06T03:01:57;6.05;;;2.50;;
25913;SDS011;13718;50.922;5.346;2023-08-06T03:04:23;8.02;;;2.85;;
25913;SDS011;13718;50.922;5.346;2023-08-06T03:06:49;8.38;;;2.40;;
25913;SDS011;13718;50.922;5.346;2023-08-06T03:09:15;6.53;;;2.20;;
25913;SDS011;13718;50.922;5.346;2023-08-06T03:11:41;11.32;;;2.55;;
25913;SDS011;13718;50.922;5.346;2023-08-06T03:14:07;10.52;;;3.13;;
25913;SDS011;13718;50.922;5.346;2023-08-06T03:16:33;7.78;;;2.65;;
25913;SDS011;13718;50.922;5.346;2023-08-06T03:18:58;8.05;;;2.47;;
25913;SDS011;13718;50.922;5.346;2023-08-06T03:21:24;7.60;;;2.90;;
25913;SDS011;13718;50.922;5.346;2023-08-06T03:23:49;10.80;;;3.17;;
25913;SDS011;13718;50.922;5.346;2023-08-06T03:26:15;8.13;;;3.05;;
25913;SDS011;13718;50.922;5.346;2023-08-06T03:28:40;10.10;;;3.50;;
25913;SDS011;13718;50.922;5.346;2023-08-06T03:31:06;7.85;;;3.58;;
25913;SDS011;13718;50.922;5.346;2023-08-06T03:33:32;10.75;;;3.72;;
25913;SDS011;13718;50.922;5.346;2023-08-06T03:35:57;10.98;;;4.55;;
25913;SDS011;13718;50.922;5.346;2023-08-06T03:38:23;13.07;;;5.13;;
25913;SDS011;13718;50.922;5.346;2023-08-06T03:40:49;17.15;;;5.25;;
25913;SDS011;13718;50.922;5.346;2023-08-06T03:43:15;16.38;;;5.70;;
25913;SDS011;13718;50.922;5.346;2023-08-06T03:45:40;16.33;;;5.75;;
25913;SDS011;13718;50.922;5.346;2023-08-06T03:48:06;14.80;;;6.57;;
25913;SDS011;13718;50.922;5.346;2023-08-06T03:50:32;20.98;;;7.07;;
25913;SDS011;13718;50.922;5.346;2023-08-06T03:52:58;17.63;;;7.13;;
25913;SDS011;13718;50.922;5.346;2023-08-06T03:55:23;21.70;;;8.63;;
25913;SDS011;13718;50.922;5.346;2023-08-06T03:57:49;24.98;;;7.80;;
25913;SDS011;13718;50.922;5.346;2023-08-06T04:00:14;17.25;;;8.15;;
25913;SDS011;13718;50.922;5.346;2023-08-06T04:02:40;20.70;;;8.38;;
25913;SDS011;13718;50.922;5.346;2023-08-06T04:05:05;21.33;;;8.48;;
25913;SDS011;13718;50.922;5.346;2023-08-06T04:07:31;21.95;;;8.77;;
25913;SDS011;13718;50.922;5.346;2023-08-06T04:10:00;24.45;;;9.05;;
25913;SDS011;13718;50.922;5.346;2023-08-06T04:12:27;24.27;;;9.07;;
25913;SDS011;13718;50.922;5.346;2023-08-06T04:14:53;24.58;;;8.88;;
25913;SDS011;13718;50.922;5.346;2023-08-06T04:17:19;23.83;;;9.15;;
25913;SDS011;13718;50.922;5.346;2023-08-06T04:19:52;24.65;;;9.10;;
25913;SDS011;13718;50.922;5.346;2023-08-06T04:22:19;21.65;;;8.98;;
25913;SDS011;13718;50.922;5.346;2023-08-06T04:24:45;24.15;;;9.48;;
25913;SDS011;13718;50.922;5.346;2023-08-06T04:27:11;31.40;;;9.95;;
25913;SDS011;13718;50.922;5.346;2023-08-06T04:29:37;23.75;;;10.18;;
25913;SDS011;13718;50.922;5.346;2023-08-06T04:32:03;24.48;;;10.90;;
25913;SDS011;13718;50.922;5.346;2023-08-06T04:34:31;24.70;;;10.20;;
25913;SDS011;13718;50.922;5.346;2023-08-06T04:36:56;23.10;;;10.02;;
25913;SDS011;13718;50.922;5.346;2023-08-06T04:39:22;21.40;;;9.93;;
25913;SDS011;13718;50.922;5.346;2023-08-06T04:41:47;22.27;;;9.68;;
25913;SDS011;13718;50.922;5.346;2023-08-06T04:44:13;27.38;;;10.70;;
25913;SDS011;13718;50.922;5.346;2023-08-06T04:46:38;31.65;;;10.90;;
25913;SDS011;13718;50.922;5.346;2023-08-06T04:49:04;27.67;;;11.05;;
25913;SDS011;13718;50.922;5.346;2023-08-06T04:51:30;34.95;;;10.85;;
25913;SDS011;13718;50.922;5.346;2023-08-06T04:53:56;25.60;;;10.38;;
25913;SDS011;13718;50.922;5.346;2023-08-06T04:56:22;30.27;;;10.80;;
25913;SDS011;13718;50.922;5.346;2023-08-06T04:58:47;22.52;;;10.55;;
25913;SDS011;13718;50.922;5.346;2023-08-06T05:01:13;27.15;;;11.10;;
25913;SDS011;13718;50.922;5.346;2023-08-06T05:03:38;25.48;;;10.60;;
25913;SDS011;13718;50.922;5.346;2023-08-06T05:06:04;25.50;;;10.95;;
25913;SDS011;13718;50.922;5.346;2023-08-06T05:08:30;25.42;;;9.32;;
25913;SDS011;13718;50.922;5.346;2023-08-06T05:10:55;19.65;;;9.38;;
25913;SDS011;13718;50.922;5.346;2023-08-06T05:13:21;21.33;;;10.45;;
25913;SDS011;13718;50.922;5.346;2023-08-06T05:15:46;24.05;;;10.60;;
25913;SDS011;13718;50.922;5.346;2023-08-06T05:18:12;22.10;;;10.45;;
25913;SDS011;13718;50.922;5.346;2023-08-06T05:20:39;17.30;;;8.80;;
25913;SDS011;13718;50.922;5.346;2023-08-06T05:23:06;16.52;;;7.78;;
25913;SDS011;13718;50.922;5.346;2023-08-06T05:25:31;17.38;;;8.32;;
25913;SDS011;13718;50.922;5.346;2023-08-06T05:27:59;18.38;;;8.02;;
25913;SDS011;13718;50.922;5.346;2023-08-06T05:30:26;14.25;;;7.18;;
25913;SDS011;13718;50.922;5.346;2023-08-06T05:32:52;15.18;;;7.82;;
25913;SDS011;13718;50.922;5.346;2023-08-06T05:35:17;13.23;;;6.60;;
25913;SDS011;13718;50.922;5.346;2023-08-06T05:37:43;16.83;;;6.20;;
25913;SDS011;13718;50.922;5.346;2023-08-06T05:40:09;13.93;;;6.88;;
25913;SDS011;13718;50.922;5.346;2023-08-06T05:42:34;12.40;;;5.68;;
25913;SDS011;13718;50.922;5.346;2023-08-06T05:45:00;13.43;;;5.43;;
25913;SDS011;13718;50.922;5.346;2023-08-06T05:47:25;9.98;;;5.30;;
25913;SDS011;13718;50.922;5.346;2023-08-06T05:49:51;7.07;;;4.20;;
25913;SDS011;13718;50.922;5.346;2023-08-06T05:52:16;8.93;;;4.43;;
25913;SDS011;13718;50.922;5.346;2023-08-06T05:54:42;7.97;;;3.58;;
25913;SDS011;13718;50.922;5.346;2023-08-06T05:57:07;5.85;;;3.50;;
25913;SDS011;13718;50.922;5.346;2023-08-06T05:59:33;5.22;;;3.20;;
25913;SDS011;13718;50.922;5.346;2023-08-06T06:01:58;6.55;;;3.28;;
25913;SDS011;13718;50.922;5.346;2023-08-06T06:04:24;5.70;;;3.35;;
25913;SDS011;13718;50.922;5.346;2023-08-06T06:06:50;6.93;;;3.63;;
25913;SDS011;13718;50.922;5.346;2023-08-06T06:09:15;6.78;;;3.90;;
25913;SDS011;13718;50.922;5.346;2023-08-06T06:11:41;11.43;;;4.88;;
25913;SDS011;13718;50.922;5.346;2023-08-06T06:14:06;11.02;;;5.28;;
25913;SDS011;13718;50.922;5.346;2023-08-06T06:16:32;11.10;;;5.30;;
25913;SDS011;13718;50.922;5.346;2023-08-06T06:18:58;10.10;;;5.47;;
25913;SDS011;13718;50.922;5.346;2023-08-06T06:21:24;7.55;;;4.00;;
25913;SDS011;13718;50.922;5.346;2023-08-06T06:23:49;7.88;;;4.13;;
25913;SDS011;13718;50.922;5.346;2023-08-06T06:26:16;7.10;;;2.80;;
25913;SDS011;13718;50.922;5.346;2023-08-06T06:28:43;3.58;;;2.40;;
25913;SDS011;13718;50.922;5.346;2023-08-06T06:31:08;3.33;;;2.00;;
25913;SDS011;13718;50.922;5.346;2023-08-06T06:33:34;6.40;;;2.78;;
25913;SDS011;13718;50.922;5.346;2023-08-06T06:36:00;5.22;;;2.85;;
25913;SDS011;13718;50.922;5.346;2023-08-06T06:38:28;8.43;;;3.10;;
25913;SDS011;13718;50.922;5.346;2023-08-06T06:40:56;7.05;;;3.65;;
25913;SDS011;13718;50.922;5.346;2023-08-06T06:43:22;9.27;;;4.28;;
25913;SDS011;13718;50.922;5.346;2023-08-06T06:46:01;8.00;;;4.93;;
25913;SDS011;13718;50.922;5.346;2023-08-06T06:48:27;8.80;;;5.65;;
25913;SDS011;13718;50.922;5.346;2023-08-06T06:50:54;8.45;;;5.43;;
25913;SDS011;13718;50.922;5.346;2023-08-06T06:53:20;13.23;;;6.15;;
25913;SDS011;13718;50.922;5.346;2023-08-06T06:55:48;12.38;;;6.78;;
25913;SDS011;13718;50.922;5.346;2023-08-06T06:58:14;13.43;;;6.70;;
25913;SDS011;13718;50.922;5.346;2023-08-06T07:00:41;15.30;;;6.93;;
25913;SDS011;13718;50.922;5.346;2023-08-06T07:03:06;12.68;;;7.03;;
25913;SDS011;13718;50.922;5.346;2023-08-06T07:05:32;13.10;;;7.10;;
25913;SDS011;13718;50.922;5.346;2023-08-06T07:07:58;13.15;;;7.32;;
25913;SDS011;13718;50.922;5.346;2023-08-06T07:10:23;10.85;;;6.75;;
25913;SDS011;13718;50.922;5.346;2023-08-06T07:12:49;10.52;;;7.30;;
25913;SDS011;13718;50.922;5.346;2023-08-06T07:15:14;15.73;;;7.55;;
25913;SDS011;13718;50.922;5.346;2023-08-06T07:17:40;14.95;;;7.95;;
25913;SDS011;13718;50.922;5.346;2023-08-06T07:20:05;15.88;;;7.18;;
25913;SDS011;13718;50.922;5.346;2023-08-06T07:22:32;10.88;;;6.22;;
25913;SDS011;13718;50.922;5.346;2023-08-06T07:24:57;11.23;;;5.57;;
25913;SDS011;13718;50.922;5.346;2023-08-06T07:27:23;9.45;;;4.82;;
25913;SDS011;13718;50.922;5.346;2023-08-06T07:29:49;10.13;;;3.80;;
25913;SDS011;13718;50.922;5.346;2023-08-06T07:32:15;10.82;;;3.67;;
25913;SDS011;13718;50.922;5.346;2023-08-06T07:34:41;11.73;;;4.03;;
25913;SDS011;13718;50.922;5.346;2023-08-06T07:37:06;9.23;;;3.58;;
25913;SDS011;13718;50.922;5.346;2023-08-06T07:39:32;9.90;;;3.10;;
25913;SDS011;13718;50.922;5.346;2023-08-06T07:41:57;6.72;;;2.75;;
25913;SDS011;13718;50.922;5.346;2023-08-06T07:44:23;9.65;;;3.00;;
25913;SDS011;13718;50.922;5.346;2023-08-06T07:46:49;8.38;;;2.72;;
25913;SDS011;13718;50.922;5.346;2023-08-06T07:49:14;8.60;;;3.00;;
25913;SDS011;13718;50.922;5.346;2023-08-06T07:51:40;11.63;;;3.25;;
25913;SDS011;13718;50.922;5.346;2023-08-06T07:54:06;14.85;;;3.53;;
25913;SDS011;13718;50.922;5.346;2023-08-06T07:56:32;9.43;;;3.15;;
25913;SDS011;13718;50.922;5.346;2023-08-06T07:58:57;13.27;;;3.85;;
25913;SDS011;13718;50.922;5.346;2023-08-06T08:01:23;8.00;;;3.05;;
25913;SDS011;13718;50.922;5.346;2023-08-06T08:03:48;9.90;;;4.07;;
25913;SDS011;13718;50.922;5.346;2023-08-06T08:06:14;12.60;;;3.22;;
25913;SDS011;13718;50.922;5.346;2023-08-06T08:08:40;11.43;;;3.88;;
25913;SDS011;13718;50.922;5.346;2023-08-06T08:11:05;10.85;;;4.18;;
25913;SDS011;13718;50.922;5.346;2023-08-06T08:13:31;14.40;;;4.28;;
25913;SDS011;13718;50.922;5.346;2023-08-06T08:16:00;13.45;;;3.60;;
25913;SDS011;13718;50.922;5.346;2023-08-06T08:18:26;12.77;;;3.70;;
25913;SDS011;13718;50.922;5.346;2023-08-06T08:20:52;11.60;;;3.50;;
25913;SDS011;13718;50.922;5.346;2023-08-06T08:23:17;12.18;;;3.63;;
25913;SDS011;13718;50.922;5.346;2023-08-06T08:25:43;13.27;;;3.65;;
25913;SDS011;13718;50.922;5.346;2023-08-06T08:28:09;13.88;;;3.20;;
25913;SDS011;13718;50.922;5.346;2023-08-06T08:30:34;9.23;;;2.83;;
25913;SDS011;13718;50.922;5.346;2023-08-06T08:33:00;12.60;;;2.92;;
25913;SDS011;13718;50.922;5.346;2023-08-06T08:35:25;14.43;;;3.65;;
25913;SDS011;13718;50.922;5.346;2023-08-06T08:37:51;15.02;;;3.42;;
25913;SDS011;13718;50.922;5.346;2023-08-06T08:40:17;12.68;;;3.08;;
25913;SDS011;13718;50.922;5.346;2023-08-06T08:42:42;19.35;;;3.83;;
25913;SDS011;13718;50.922;5.346;2023-08-06T08:45:12;9.63;;;3.70;;
25913;SDS011;13718;50.922;5.346;2023-08-06T08:47:42;13.68;;;3.92;;
25913;SDS011;13718;50.922;5.346;2023-08-06T08:50:08;12.55;;;3.58;;
25913;SDS011;13718;50.922;5.346;2023-08-06T08:52:39;18.40;;;4.18;;
25913;SDS011;13718;50.922;5.346;2023-08-06T08:55:07;16.45;;;3.85;;
25913;SDS011;13718;50.922;5.346;2023-08-06T08:57:33;18.25;;;3.33;;
25913;SDS011;13718;50.922;5.346;2023-08-06T08:59:59;20.27;;;3.33;;
25913;SDS011;13718;50.922;5.346;2023-08-06T09:02:25;14.55;;;2.92;;
25913;SDS011;13718;50.922;5.346;2023-08-06T09:04:54;12.40;;;2.92;;
25913;SDS011;13718;50.922;5.346;2023-08-06T09:07:24;20.08;;;3.53;;
25913;SDS011;13718;50.922;5.346;2023-08-06T09:09:51;15.73;;;2.58;;
25913;SDS011;13718;50.922;5.346;2023-08-06T09:12:18;18.38;;;2.70;;
25913;SDS011;13718;50.922;5.346;2023-08-06T09:14:43;16.10;;;1.85;;
25913;SDS011;13718;50.922;5.346;2023-08-06T09:17:09;12.23;;;2.20;;
25913;SDS011;13718;50.922;5.346;2023-08-06T09:19:41;24.98;;;2.63;;
25913;SDS011;13718;50.922;5.346;2023-08-06T09:22:11;11.80;;;1.98;;
25913;SDS011;13718;50.922;5.346;2023-08-06T09:24:39;16.95;;;2.78;;
25913;SDS011;13718;50.922;5.346;2023-08-06T09:27:10;19.23;;;2.63;;
25913;SDS011;13718;50.922;5.346;2023-08-06T09:29:44;14.15;;;2.17;;
25913;SDS011;13718;50.922;5.346;2023-08-06T09:32:11;17.50;;;2.45;;
25913;SDS011;13718;50.922;5.346;2023-08-06T09:34:41;19.05;;;2.63;;
25913;SDS011;13718;50.922;5.346;2023-08-06T09:37:08;12.57;;;2.83;;
25913;SDS011;13718;50.922;5.346;2023-08-06T09:39:35;15.18;;;2.45;;
25913;SDS011;13718;50.922;5.346;2023-08-06T09:42:02;13.52;;;2.20;;
25913;SDS011;13718;50.922;5.346;2023-08-06T09:44:30;19.83;;;2.35;;
25913;SDS011;13718;50.922;5.346;2023-08-06T09:46:57;15.75;;;2.50;;
25913;SDS011;13718;50.922;5.346;2023-08-06T09:49:28;11.18;;;2.10;;
25913;SDS011;13718;50.922;5.346;2023-08-06T09:54:34;13.95;;;2.10;;
25913;SDS011;13718;50.922;5.346;2023-08-06T09:57:03;14.52;;;2.03;;
25913;SDS011;13718;50.922;5.346;2023-08-06T09:59:30;11.50;;;2.13;;
25913;SDS011;13718;50.922;5.346;2023-08-06T10:01:57;12.70;;;1.98;;
25913;SDS011;13718;50.922;5.346;2023-08-06T10:04:23;14.75;;;2.40;;
25913;SDS011;13718;50.922;5.346;2023-08-06T10:06:49;12.45;;;2.15;;
25913;SDS011;13718;50.922;5.346;2023-08-06T10:09:15;9.57;;;1.75;;
25913;SDS011;13718;50.922;5.346;2023-08-06T10:11:42;12.27;;;2.05;;
25913;SDS011;13718;50.922;5.346;2023-08-06T10:14:12;11.82;;;1.75;;
25913;SDS011;13718;50.922;5.346;2023-08-06T10:16:41;10.75;;;1.70;;
25913;SDS011;13718;50.922;5.346;2023-08-06T10:19:09;11.45;;;1.63;;
25913;SDS011;13718;50.922;5.346;2023-08-06T10:21:39;12.48;;;1.90;;
25913;SDS011;13718;50.922;5.346;2023-08-06T10:24:08;9.65;;;1.95;;
25913;SDS011;13718;50.922;5.346;2023-08-06T10:26:39;9.25;;;1.80;;
25913;SDS011;13718;50.922;5.346;2023-08-06T10:32:02;8.10;;;1.85;;
25913;SDS011;13718;50.922;5.346;2023-08-06T10:37:21;12.10;;;2.80;;
25913;SDS011;13718;50.922;5.346;2023-08-06T10:39:49;10.25;;;2.17;;
25913;SDS011;13718;50.922;5.346;2023-08-06T10:42:19;10.50;;;2.05;;
25913;SDS011;13718;50.922;5.346;2023-08-06T10:45:10;10.32;;;2.38;;
25913;SDS011;13718;50.922;5.346;2023-08-06T10:47:41;11.10;;;2.30;;
25913;SDS011;13718;50.922;5.346;2023-08-06T10:50:07;9.18;;;2.03;;
25913;SDS011;13718;50.922;5.346;2023-08-06T10:52:35;9.82;;;1.80;;
25913;SDS011;13718;50.922;5.346;2023-08-06T10:55:01;8.05;;;1.95;;
25913;SDS011;13718;50.922;5.346;2023-08-06T10:57:26;8.25;;;1.63;;
25913;SDS011;13718;50.922;5.346;2023-08-06T10:59:52;7.50;;;1.70;;
25913;SDS011;13718;50.922;5.346;2023-08-06T11:02:17;5.88;;;1.35;;
25913;SDS011;13718;50.922;5.346;2023-08-06T11:04:43;7.88;;;1.50;;
25913;SDS011;13718;50.922;5.346;2023-08-06T11:07:09;7.63;;;1.45;;
25913;SDS011;13718;50.922;5.346;2023-08-06T11:09:35;5.32;;;1.27;;
25913;SDS011;13718;50.922;5.346;2023-08-06T11:12:00;6.00;;;1.70;;
25913;SDS011;13718;50.922;5.346;2023-08-06T11:14:26;10.75;;;1.75;;
25913;SDS011;13718;50.922;5.346;2023-08-06T11:16:51;4.60;;;1.13;;
25913;SDS011;13718;50.922;5.346;2023-08-06T11:19:17;8.32;;;1.40;;
25913;SDS011;13718;50.922;5.346;2023-08-06T11:21:43;5.85;;;1.08;;
25913;SDS011;13718;50.922;5.346;2023-08-06T11:24:11;8.02;;;1.10;;
25913;SDS011;13718;50.922;5.346;2023-08-06T11:26:37;5.43;;;0.70;;
25913;SDS011;13718;50.922;5.346;2023-08-06T11:29:05;6.57;;;1.48;;
25913;SDS011;13718;50.922;5.346;2023-08-06T11:31:30;6.15;;;1.10;;
25913;SDS011;13718;50.922;5.346;2023-08-06T11:33:56;10.10;;;1.20;;
25913;SDS011;13718;50.922;5.346;2023-08-06T11:36:28;7.55;;;1.33;;
25913;SDS011;13718;50.922;5.346;2023-08-06T11:38:55;4.60;;;0.90;;
25913;SDS011;13718;50.922;5.346;2023-08-06T11:41:21;4.93;;;1.05;;
25913;SDS011;13718;50.922;5.346;2023-08-06T11:43:47;8.80;;;1.40;;
25913;SDS011;13718;50.922;5.346;2023-08-06T11:46:13;9.13;;;1.67;;
25913;SDS011;13718;50.922;5.346;2023-08-06T11:48:51;11.23;;;1.45;;
25913;SDS011;13718;50.922;5.346;2023-08-06T11:51:26;8.82;;;1.50;;
25913;SDS011;13718;50.922;5.346;2023-08-06T11:53:58;12.75;;;1.17;;
25913;SDS011;13718;50.922;5.346;2023-08-06T11:56:24;8.35;;;1.30;;
25913;SDS011;13718;50.922;5.346;2023-08-06T11:58:51;7.85;;;1.15;;
25913;SDS011;13718;50.922;5.346;2023-08-06T12:01:16;10.65;;;1.58;;
25913;SDS011;13718;50.922;5.346;2023-08-06T12:03:43;9.25;;;1.00;;
25913;SDS011;13718;50.922;5.346;2023-08-06T12:06:09;10.90;;;1.13;;
25913;SDS011;13718;50.922;5.346;2023-08-06T12:08:34;7.45;;;0.95;;
25913;SDS011;13718;50.922;5.346;2023-08-06T12:11:00;6.78;;;0.95;;
25913;SDS011;13718;50.922;5.346;2023-08-06T12:13:26;7.03;;;1.42;;
25913;SDS011;13718;50.922;5.346;2023-08-06T12:15:51;8.10;;;1.10;;
25913;SDS011;13718;50.922;5.346;2023-08-06T12:18:19;7.78;;;1.45;;
25913;SDS011;13718;50.922;5.346;2023-08-06T12:20:44;7.20;;;1.50;;
25913;SDS011;13718;50.922;5.346;2023-08-06T12:23:10;3.05;;;1.00;;
25913;SDS011;13718;50.922;5.346;2023-08-06T12:25:38;6.05;;;1.17;;
25913;SDS011;13718;50.922;5.346;2023-08-06T12:28:04;8.88;;;1.20;;
25913;SDS011;13718;50.922;5.346;2023-08-06T12:30:30;10.48;;;1.23;;
25913;SDS011;13718;50.922;5.346;2023-08-06T12:32:56;8.35;;;1.25;;
25913;SDS011;13718;50.922;5.346;2023-08-06T12:35:22;9.45;;;1.55;;
25913;SDS011;13718;50.922;5.346;2023-08-06T12:37:47;8.60;;;1.20;;
25913;SDS011;13718;50.922;5.346;2023-08-06T12:40:13;6.88;;;1.25;;
25913;SDS011;13718;50.922;5.346;2023-08-06T12:42:38;6.57;;;1.40;;
25913;SDS011;13718;50.922;5.346;2023-08-06T12:45:04;8.57;;;1.77;;
25913;SDS011;13718;50.922;5.346;2023-08-06T12:47:30;9.88;;;1.60;;
25913;SDS011;13718;50.922;5.346;2023-08-06T12:49:55;12.50;;;2.05;;
25913;SDS011;13718;50.922;5.346;2023-08-06T12:52:21;7.15;;;1.52;;
25913;SDS011;13718;50.922;5.346;2023-08-06T12:54:46;7.63;;;1.38;;
25913;SDS011;13718;50.922;5.346;2023-08-06T12:57:12;6.47;;;1.50;;
25913;SDS011;13718;50.922;5.346;2023-08-06T12:59:39;12.52;;;1.50;;
25913;SDS011;13718;50.922;5.346;2023-08-06T13:02:04;5.43;;;1.10;;
25913;SDS011;13718;50.922;5.346;2023-08-06T13:04:30;8.68;;;1.60;;
25913;SDS011;13718;50.922;5.346;2023-08-06T13:06:56;10.18;;;1.70;;
25913;SDS011;13718;50.922;5.346;2023-08-06T13:09:22;7.32;;;1.30;;
25913;SDS011;13718;50.922;5.346;2023-08-06T13:11:47;8.48;;;1.20;;
25913;SDS011;13718;50.922;5.346;2023-08-06T13:14:15;12.70;;;1.48;;
25913;SDS011;13718;50.922;5.346;2023-08-06T13:16:41;7.07;;;1.25;;
25913;SDS011;13718;50.922;5.346;2023-08-06T13:19:07;8.77;;;1.60;;
25913;SDS011;13718;50.922;5.346;2023-08-06T13:21:34;8.15;;;1.27;;
25913;SDS011;13718;50.922;5.346;2023-08-06T13:24:16;3.80;;;1.20;;
25913;SDS011;13718;50.922;5.346;2023-08-06T13:26:42;4.00;;;1.27;;
25913;SDS011;13718;50.922;5.346;2023-08-06T13:29:08;7.65;;;1.40;;
25913;SDS011;13718;50.922;5.346;2023-08-06T13:31:33;5.63;;;1.60;;
25913;SDS011;13718;50.922;5.346;2023-08-06T13:33:59;5.10;;;1.50;;
25913;SDS011;13718;50.922;5.346;2023-08-06T13:36:25;5.50;;;1.40;;
25913;SDS011;13718;50.922;5.346;2023-08-06T13:38:51;4.78;;;1.30;;
25913;SDS011;13718;50.922;5.346;2023-08-06T13:41:17;5.63;;;1.70;;
25913;SDS011;13718;50.922;5.346;2023-08-06T13:43:43;7.43;;;1.63;;
25913;SDS011;13718;50.922;5.346;2023-08-06T13:46:12;10.15;;;1.70;;
25913;SDS011;13718;50.922;5.346;2023-08-06T13:48:45;8.00;;;1.85;;
25913;SDS011;13718;50.922;5.346;2023-08-06T13:51:13;13.07;;;1.75;;
25913;SDS011;13718;50.922;5.346;2023-08-06T13:53:39;11.90;;;2.40;;
25913;SDS011;13718;50.922;5.346;2023-08-06T13:56:06;8.65;;;1.85;;
25913;SDS011;13718;50.922;5.346;2023-08-06T13:58:32;11.20;;;1.80;;
25913;SDS011;13718;50.922;5.346;2023-08-06T14:00:58;3.95;;;1.33;;
25913;SDS011;13718;50.922;5.346;2023-08-06T14:03:24;9.02;;;1.50;;
25913;SDS011;13718;50.922;5.346;2023-08-06T14:05:49;7.90;;;1.50;;
25913;SDS011;13718;50.922;5.346;2023-08-06T14:08:15;10.65;;;1.70;;
25913;SDS011;13718;50.922;5.346;2023-08-06T14:10:43;6.40;;;1.40;;
25913;SDS011;13718;50.922;5.346;2023-08-06T14:13:09;9.05;;;1.20;;
25913;SDS011;13718;50.922;5.346;2023-08-06T14:15:35;6.57;;;1.00;;
25913;SDS011;13718;50.922;5.346;2023-08-06T14:18:01;6.32;;;1.27;;
25913;SDS011;13718;50.922;5.346;2023-08-06T14:20:27;4.15;;;0.95;;
25913;SDS011;13718;50.922;5.346;2023-08-06T14:22:56;5.18;;;1.40;;
25913;SDS011;13718;50.922;5.346;2023-08-06T14:25:22;7.57;;;1.10;;
25913;SDS011;13718;50.922;5.346;2023-08-06T14:27:47;3.90;;;0.88;;
25913;SDS011;13718;50.922;5.346;2023-08-06T14:30:13;3.47;;;0.75;;
25913;SDS011;13718;50.922;5.346;2023-08-06T14:32:38;4.95;;;0.90;;
25913;SDS011;13718;50.922;5.346;2023-08-06T14:35:04;2.97;;;0.70;;
25913;SDS011;13718;50.922;5.346;2023-08-06T14:37:30;4.72;;;0.68;;
25913;SDS011;13718;50.922;5.346;2023-08-06T14:39:55;4.72;;;0.73;;
25913;SDS011;13718;50.922;5.346;2023-08-06T14:42:21;3.22;;;0.85;;
25913;SDS011;13718;50.922;5.346;2023-08-06T14:44:47;5.60;;;0.93;;
25913;SDS011;13718;50.922;5.346;2023-08-06T14:47:12;4.05;;;0.57;;